createdAt,value
2023-04-15T00:00:12.727Z,1.38
2023-04-15T00:01:19.965Z,1.25
2023-04-15T00:02:22.466Z,1.40
2023-04-15T00:03:25.303Z,1.30
2023-04-15T00:04:28.671Z,1.00
2023-04-15T00:05:31.963Z,1.33
2023-04-15T00:06:34.601Z,1.20
2023-04-15T00:07:37.485Z,1.08
2023-04-15T00:08:40.330Z,1.15
2023-04-15T00:09:43.268Z,1.10
2023-04-15T00:10:47.387Z,1.50
2023-04-15T00:11:51.625Z,1.10
2023-04-15T00:12:54.240Z,0.90
2023-04-15T00:13:56.739Z,1.25
2023-04-15T00:14:59.183Z,1.10
2023-04-15T00:16:02.467Z,1.50
2023-04-15T00:17:05.638Z,1.00
2023-04-15T00:18:08.646Z,1.10
2023-04-15T00:19:13.276Z,1.20
2023-04-15T00:20:15.815Z,1.10
2023-04-15T00:21:19.154Z,1.00
2023-04-15T00:22:21.538Z,1.17
2023-04-15T00:23:24.446Z,1.10
2023-04-15T00:24:26.884Z,1.20
2023-04-15T00:25:29.474Z,0.87
2023-04-15T00:26:32.155Z,1.30
2023-04-15T00:27:34.589Z,0.85
2023-04-15T00:28:37.491Z,1.10
2023-04-15T00:29:40.014Z,1.00
2023-04-15T00:30:42.721Z,1.15
2023-04-15T00:31:45.144Z,0.93
2023-04-15T00:32:49.772Z,0.98
2023-04-15T00:33:56.574Z,1.00
2023-04-15T00:34:59.286Z,1.20
2023-04-15T00:36:04.420Z,0.83
2023-04-15T00:37:06.769Z,1.00
2023-04-15T00:38:09.523Z,0.65
2023-04-15T00:39:12.127Z,0.80
2023-04-15T00:40:17.920Z,0.90
2023-04-15T00:41:21.684Z,1.20
2023-04-15T00:42:25.239Z,0.80
2023-04-15T00:43:30.452Z,1.10
2023-04-15T00:44:33.681Z,1.00
2023-04-15T00:45:36.014Z,0.70
2023-04-15T00:46:42.773Z,0.80
2023-04-15T00:47:47.144Z,0.97
2023-04-15T00:48:50.802Z,0.90
2023-04-15T00:49:53.114Z,0.80
2023-04-15T00:50:55.750Z,0.90
2023-04-15T00:51:58.485Z,0.80
2023-04-15T00:53:00.924Z,0.95
2023-04-15T00:54:07.970Z,0.80
2023-04-15T00:55:11.633Z,0.93
2023-04-15T00:56:14.854Z,0.80
2023-04-15T00:57:17.590Z,0.80
2023-04-15T00:58:20.066Z,0.80
2023-04-15T00:59:22.493Z,0.80
2023-04-15T01:00:25.060Z,0.82
2023-04-15T01:01:29.148Z,0.70
2023-04-15T01:02:33.022Z,0.55
2023-04-15T01:03:35.820Z,0.82
2023-04-15T01:04:38.879Z,0.90
2023-04-15T01:05:42.766Z,0.80
2023-04-15T01:06:46.240Z,0.90
2023-04-15T01:07:50.650Z,0.80
2023-04-15T01:08:54.460Z,0.90
2023-04-15T01:09:58.652Z,0.90
2023-04-15T01:11:05.827Z,1.00
2023-04-15T01:12:11.841Z,1.00
2023-04-15T01:13:14.233Z,1.10
2023-04-15T01:14:17.102Z,0.90
2023-04-15T01:15:19.488Z,1.10
2023-04-15T01:16:22.410Z,0.90
2023-04-15T01:17:27.576Z,1.02
2023-04-15T01:18:31.624Z,0.90
2023-04-15T01:19:34.179Z,1.07
2023-04-15T01:20:37.180Z,0.80
2023-04-15T01:21:40.121Z,1.00
2023-04-15T01:22:44.583Z,1.00
2023-04-15T01:23:48.815Z,0.80
2023-04-15T01:25:08.523Z,1.00
2023-04-15T01:26:12.920Z,1.00
2023-04-15T01:27:17.817Z,1.00
2023-04-15T01:28:20.719Z,1.00
2023-04-15T01:29:23.481Z,1.20
2023-04-15T01:30:27.170Z,1.27
2023-04-15T01:31:29.572Z,1.20
2023-04-15T01:32:32.165Z,1.08
2023-04-15T01:33:34.609Z,1.30
2023-04-15T01:34:37.793Z,1.10
2023-04-15T01:35:41.321Z,1.10
2023-04-15T01:36:43.746Z,1.20
2023-04-15T01:37:47.272Z,1.25
2023-04-15T01:38:49.455Z,1.23
2023-04-15T01:39:52.996Z,1.40
2023-04-15T01:40:55.423Z,1.38
2023-04-15T01:41:58.380Z,1.02
2023-04-15T01:43:01.470Z,1.25
2023-04-15T01:44:05.638Z,1.23
2023-04-15T01:45:08.839Z,1.40
2023-04-15T01:46:11.422Z,1.17
2023-04-15T01:47:14.643Z,1.50
2023-04-15T01:48:17.194Z,1.45
2023-04-15T01:49:21.321Z,1.38
2023-04-15T01:50:23.766Z,1.57
2023-04-15T01:51:27.209Z,1.50
2023-04-15T01:52:29.298Z,1.30
2023-04-15T01:53:31.832Z,1.45
2023-04-15T01:54:34.926Z,1.50
2023-04-15T01:55:38.776Z,1.40
2023-04-15T01:56:43.052Z,1.17
2023-04-15T01:57:45.761Z,1.50
2023-04-15T01:58:48.526Z,1.25
2023-04-15T01:59:51.650Z,1.50
2023-04-15T02:00:54.518Z,1.50
2023-04-15T02:01:57.696Z,1.38
2023-04-15T02:03:00.978Z,1.38
2023-04-15T02:04:05.180Z,1.40
2023-04-15T02:05:09.652Z,1.40
2023-04-15T02:06:12.400Z,1.75
2023-04-15T02:07:14.870Z,1.80
2023-04-15T02:08:18.901Z,1.60
2023-04-15T02:09:22.140Z,1.40
2023-04-15T02:10:25.885Z,1.75
2023-04-15T02:11:28.640Z,1.60
2023-04-15T02:12:30.963Z,1.60
2023-04-15T02:13:33.182Z,1.50
2023-04-15T02:14:35.982Z,1.50
2023-04-15T02:15:38.400Z,1.83
2023-04-15T02:16:41.099Z,1.73
2023-04-15T02:17:46.156Z,1.60
2023-04-15T02:18:49.906Z,1.60
2023-04-15T02:19:54.018Z,1.90
2023-04-15T02:20:59.119Z,1.50
2023-04-15T02:22:05.063Z,1.60
2023-04-15T02:23:08.978Z,1.27
2023-04-15T02:24:12.555Z,1.40
2023-04-15T02:25:17.008Z,1.50
2023-04-15T02:26:18.879Z,1.58
2023-04-15T02:27:20.660Z,1.45
2023-04-15T02:28:22.489Z,1.52
2023-04-15T02:29:24.289Z,1.70
2023-04-15T02:30:27.173Z,1.50
2023-04-15T02:31:28.996Z,1.80
2023-04-15T02:32:30.890Z,1.40
2023-04-15T02:33:32.686Z,1.80
2023-04-15T02:34:34.405Z,1.63
2023-04-15T02:35:39.222Z,1.80
2023-04-15T02:36:41.247Z,1.70
2023-04-15T02:37:44.598Z,1.70
2023-04-15T02:38:46.401Z,1.48
2023-04-15T02:39:48.110Z,1.70
2023-04-15T02:40:50.431Z,1.50
2023-04-15T02:41:52.491Z,1.60
2023-04-15T02:42:54.271Z,1.60
2023-04-15T02:43:56.943Z,1.40
2023-04-15T02:44:59.369Z,1.60
2023-04-15T02:46:01.164Z,1.52
2023-04-15T02:47:04.837Z,1.20
2023-04-15T02:48:06.791Z,1.20
2023-04-15T02:49:08.667Z,1.42
2023-04-15T02:50:12.825Z,1.50
2023-04-15T02:51:16.739Z,1.50
2023-04-15T02:52:18.631Z,1.42
2023-04-15T02:53:20.790Z,1.40
2023-04-15T02:54:23.049Z,1.50
2023-04-15T02:55:24.813Z,1.65
2023-04-15T02:56:27.349Z,1.40
2023-04-15T02:57:29.568Z,1.60
2023-04-15T02:58:31.762Z,1.50
2023-04-15T02:59:33.538Z,1.50
2023-04-15T03:00:35.364Z,1.27
2023-04-15T03:01:37.193Z,1.40
2023-04-15T03:02:39.850Z,1.40
2023-04-15T03:03:41.865Z,1.33
2023-04-15T03:04:43.767Z,1.63
2023-04-15T03:05:45.544Z,1.27
2023-04-15T03:06:47.507Z,1.35
2023-04-15T03:07:49.273Z,1.38
2023-04-15T03:08:51.354Z,1.60
2023-04-15T03:09:53.137Z,1.60
2023-04-15T03:10:54.898Z,1.77
2023-04-15T03:11:56.967Z,1.30
2023-04-15T03:12:58.769Z,1.50
2023-04-15T03:14:00.686Z,1.53
2023-04-15T03:15:02.511Z,1.60
2023-04-15T03:16:04.473Z,1.60
2023-04-15T03:17:06.289Z,1.60
2023-04-15T03:18:08.023Z,1.70
2023-04-15T03:19:10.856Z,1.70
2023-04-15T03:20:13.267Z,1.70
2023-04-15T03:21:15.064Z,1.67
2023-04-15T03:22:16.766Z,1.60
2023-04-15T03:23:18.553Z,1.48
2023-04-15T03:24:21.029Z,1.63
2023-04-15T03:25:22.832Z,1.83
2023-04-15T03:26:28.210Z,1.52
2023-04-15T03:27:29.986Z,1.58
2023-04-15T03:28:32.725Z,1.80
2023-04-15T03:29:34.490Z,2.05
2023-04-15T03:30:36.273Z,1.40
2023-04-15T03:31:38.169Z,1.70
2023-04-15T03:32:40.479Z,1.58
2023-04-15T03:33:42.351Z,1.70
2023-04-15T03:34:44.272Z,1.50
2023-04-15T03:35:46.513Z,1.60
2023-04-15T03:36:48.257Z,1.48
2023-04-15T03:37:49.964Z,1.70
2023-04-15T03:38:51.715Z,1.83
2023-04-15T03:39:53.464Z,1.42
2023-04-15T03:40:55.223Z,1.65
2023-04-15T03:41:57.821Z,1.90
2023-04-15T03:42:59.594Z,1.60
2023-04-15T03:44:01.389Z,1.50
2023-04-15T03:45:03.598Z,1.60
2023-04-15T03:46:05.747Z,1.98
2023-04-15T03:47:07.615Z,1.60
2023-04-15T03:48:17.376Z,1.33
2023-04-15T03:49:20.701Z,1.60
2023-04-15T03:50:22.509Z,1.60
2023-04-15T03:51:24.423Z,1.60
2023-04-15T03:52:26.394Z,1.58
2023-04-15T03:53:28.182Z,1.63
2023-04-15T03:54:29.986Z,1.73
2023-04-15T03:55:31.746Z,1.90
2023-04-15T03:56:33.477Z,1.70
2023-04-15T03:57:38.157Z,1.85
2023-04-15T03:58:39.883Z,2.08
2023-04-15T03:59:41.965Z,1.83
2023-04-15T04:00:43.680Z,2.00
2023-04-15T04:01:45.826Z,2.00
2023-04-15T04:02:47.746Z,1.63
2023-04-15T04:03:49.758Z,1.80
2023-04-15T04:04:51.944Z,2.10
2023-04-15T04:05:53.841Z,2.17
2023-04-15T04:06:55.592Z,1.77
2023-04-15T04:07:57.304Z,2.05
2023-04-15T04:08:59.134Z,1.90
2023-04-15T04:10:01.265Z,1.70
2023-04-15T04:11:03.042Z,1.95
2023-04-15T04:12:04.816Z,2.20
2023-04-15T04:13:06.549Z,1.92
2023-04-15T04:14:08.294Z,1.92
2023-04-15T04:15:10.429Z,1.98
2023-04-15T04:16:12.470Z,1.90
2023-04-15T04:17:14.367Z,2.17
2023-04-15T04:18:16.163Z,2.15
2023-04-15T04:19:19.930Z,2.35
2023-04-15T04:20:21.799Z,2.10
2023-04-15T04:21:23.641Z,2.03
2023-04-15T04:22:26.444Z,2.47
2023-04-15T04:23:28.181Z,2.40
2023-04-15T04:24:29.952Z,2.03
2023-04-15T04:25:32.189Z,2.30
2023-04-15T04:26:33.965Z,2.23
2023-04-15T04:27:36.060Z,2.20
2023-04-15T04:28:39.552Z,2.78
2023-04-15T04:29:41.452Z,2.85
2023-04-15T04:30:43.282Z,2.60
2023-04-15T04:31:45.205Z,2.70
2023-04-15T04:32:47.060Z,2.90
2023-04-15T04:33:48.806Z,2.70
2023-04-15T04:34:50.599Z,3.03
2023-04-15T04:35:52.326Z,2.55
2023-04-15T04:36:54.042Z,2.70
2023-04-15T04:37:56.061Z,2.97
2023-04-15T04:38:57.790Z,2.50
2023-04-15T04:39:59.526Z,2.88
2023-04-15T04:41:01.321Z,2.75
2023-04-15T04:42:03.032Z,2.85
2023-04-15T04:43:04.779Z,3.22
2023-04-15T04:44:07.048Z,3.22
2023-04-15T04:45:09.246Z,3.08
2023-04-15T04:46:11.998Z,2.80
2023-04-15T04:47:14.071Z,3.17
2023-04-15T04:48:17.023Z,3.33
2023-04-15T04:49:18.813Z,3.38
2023-04-15T04:50:20.550Z,3.15
2023-04-15T04:51:23.611Z,3.22
2023-04-15T04:52:25.657Z,3.30
2023-04-15T04:53:28.109Z,3.45
2023-04-15T04:54:31.187Z,4.00
2023-04-15T04:55:33.051Z,3.40
2023-04-15T04:56:34.831Z,3.50
2023-04-15T04:57:37.700Z,3.47
2023-04-15T04:58:39.562Z,2.97
2023-04-15T04:59:41.357Z,3.55
2023-04-15T05:00:43.368Z,3.50
2023-04-15T05:01:45.230Z,3.70
2023-04-15T05:02:47.334Z,3.60
2023-04-15T05:03:49.377Z,3.65
2023-04-15T05:04:54.384Z,3.80
2023-04-15T05:05:56.139Z,3.42
2023-04-15T05:06:59.269Z,3.25
2023-04-15T05:08:01.441Z,3.53
2023-04-15T05:09:03.975Z,3.58
2023-04-15T05:10:06.647Z,4.03
2023-04-15T05:11:09.015Z,3.80
2023-04-15T05:12:14.985Z,3.22
2023-04-15T05:13:16.789Z,3.20
2023-04-15T05:14:18.548Z,3.25
2023-04-15T05:15:20.427Z,3.50
2023-04-15T05:16:22.301Z,3.20
2023-04-15T05:17:24.573Z,2.88
2023-04-15T05:18:26.463Z,3.60
2023-04-15T05:19:28.192Z,3.37
2023-04-15T05:20:29.968Z,3.33
2023-04-15T05:21:31.749Z,3.03
2023-04-15T05:22:33.551Z,3.33
2023-04-15T05:23:35.418Z,3.20
2023-04-15T05:24:37.157Z,3.20
2023-04-15T05:25:39.360Z,3.28
2023-04-15T05:26:42.727Z,2.90
2023-04-15T05:27:44.689Z,3.17
2023-04-15T05:28:46.422Z,3.17
2023-04-15T05:29:48.270Z,3.87
2023-04-15T05:30:50.522Z,3.00
2023-04-15T05:31:52.288Z,3.13
2023-04-15T05:32:54.054Z,2.85
2023-04-15T05:33:55.966Z,3.10
2023-04-15T05:34:57.678Z,2.95
2023-04-15T05:35:59.411Z,2.90
2023-04-15T05:37:01.368Z,2.90
2023-04-15T05:38:03.631Z,2.65
2023-04-15T05:39:05.326Z,2.37
2023-04-15T05:40:08.001Z,2.57
2023-04-15T05:41:09.737Z,2.30
2023-04-15T05:42:11.488Z,2.40
2023-04-15T05:43:13.212Z,2.30
2023-04-15T05:44:15.006Z,2.00
2023-04-15T05:45:16.750Z,1.95
2023-04-15T05:46:18.609Z,1.50
2023-04-15T05:47:20.407Z,1.70
2023-04-15T05:48:22.137Z,1.80
2023-04-15T05:49:24.012Z,1.60
2023-04-15T05:50:25.803Z,1.50
2023-04-15T05:51:27.838Z,1.50
2023-04-15T05:52:29.580Z,1.58
2023-04-15T05:53:31.902Z,1.38
2023-04-15T05:54:33.692Z,1.40
2023-04-15T05:55:35.469Z,1.25
2023-04-15T05:56:37.238Z,1.30
2023-04-15T05:57:39.006Z,1.20
2023-04-15T05:58:41.085Z,1.40
2023-04-15T05:59:42.791Z,1.10
2023-04-15T06:00:44.721Z,0.90
2023-04-15T06:01:48.262Z,1.08
2023-04-15T06:02:50.669Z,0.82
2023-04-15T06:03:52.697Z,0.90
2023-04-15T06:04:54.697Z,0.80
2023-04-15T06:05:56.454Z,0.93
2023-04-15T06:06:58.181Z,1.00
2023-04-15T06:07:59.895Z,0.80
2023-04-15T06:09:01.778Z,0.80
2023-04-15T06:10:04.806Z,0.77
2023-04-15T06:11:06.618Z,1.00
2023-04-15T06:12:12.141Z,1.35
2023-04-15T06:13:14.086Z,1.90
2023-04-15T06:14:16.072Z,1.00
2023-04-15T06:15:17.957Z,1.00
2023-04-15T06:16:19.708Z,0.80
2023-04-15T06:17:21.550Z,0.70
2023-04-15T06:18:23.302Z,1.00
2023-04-15T06:19:25.561Z,0.70
2023-04-15T06:20:27.914Z,0.80
2023-04-15T06:21:31.182Z,0.60
2023-04-15T06:22:32.990Z,1.17
2023-04-15T06:23:36.367Z,0.80
2023-04-15T06:24:38.206Z,0.73
2023-04-15T06:25:39.996Z,0.63
2023-04-15T06:26:41.831Z,0.60
2023-04-15T06:27:43.631Z,0.80
2023-04-15T06:28:45.391Z,0.60
2023-04-15T06:29:47.111Z,0.60
2023-04-15T06:30:48.939Z,0.33
2023-04-15T06:31:51.180Z,0.43
2023-04-15T06:32:53.298Z,0.45
2023-04-15T06:33:55.104Z,0.52
2023-04-15T06:34:56.933Z,0.40
2023-04-15T06:35:59.834Z,0.60
2023-04-15T06:37:01.628Z,0.50
2023-04-15T06:38:03.405Z,0.52
2023-04-15T06:39:05.156Z,0.30
2023-04-15T06:40:08.699Z,0.40
2023-04-15T06:41:10.746Z,0.40
2023-04-15T06:42:12.639Z,0.33
2023-04-15T06:43:15.273Z,0.30
2023-04-15T06:44:17.075Z,0.40
2023-04-15T06:45:18.825Z,0.40
2023-04-15T06:46:20.769Z,0.40
2023-04-15T06:47:23.310Z,0.30
2023-04-15T06:48:25.373Z,0.47
2023-04-15T06:49:27.118Z,0.20
2023-04-15T06:50:28.862Z,0.30
2023-04-15T06:51:31.392Z,0.20
2023-04-15T06:52:33.196Z,0.37
2023-04-15T06:53:35.630Z,0.30
2023-04-15T06:54:37.589Z,0.22
2023-04-15T06:55:40.212Z,0.20
2023-04-15T06:56:42.075Z,0.30
2023-04-15T06:57:43.819Z,0.40
2023-04-15T06:58:45.848Z,0.50
2023-04-15T06:59:47.702Z,0.40
2023-04-15T07:00:49.631Z,0.40
2023-04-15T07:01:51.948Z,0.40
2023-04-15T07:02:55.320Z,0.30
2023-04-15T07:03:57.240Z,0.55
2023-04-15T07:04:59.051Z,0.32
2023-04-15T07:06:01.715Z,0.20
2023-04-15T07:07:03.474Z,0.25
2023-04-15T07:08:07.574Z,0.40
2023-04-15T07:09:09.835Z,0.20
2023-04-15T07:10:12.130Z,0.25
2023-04-15T07:11:14.235Z,0.20
2023-04-15T07:12:16.200Z,0.27
2023-04-15T07:13:17.986Z,0.20
2023-04-15T07:14:19.754Z,0.30
2023-04-15T07:15:22.221Z,0.15
2023-04-15T07:16:24.244Z,0.13
2023-04-15T07:17:26.427Z,0.20
2023-04-15T07:18:28.266Z,0.10
2023-04-15T07:19:30.050Z,0.38
2023-04-15T07:20:31.799Z,0.28
2023-04-15T07:21:33.600Z,0.20
2023-04-15T07:22:35.652Z,0.20
2023-04-15T07:23:37.469Z,0.20
2023-04-15T07:24:39.210Z,0.30
2023-04-15T07:25:41.143Z,0.20
2023-04-15T07:26:44.078Z,0.20
2023-04-15T07:27:46.899Z,0.30
2023-04-15T07:28:49.168Z,0.20
2023-04-15T07:29:52.050Z,0.20
2023-04-15T07:30:53.896Z,0.20
2023-04-15T07:31:57.117Z,0.20
2023-04-15T07:32:59.185Z,0.30
2023-04-15T07:34:00.947Z,0.20
2023-04-15T07:35:03.739Z,0.20
2023-04-15T07:36:05.671Z,0.30
2023-04-15T07:37:07.425Z,0.22
2023-04-15T07:38:09.201Z,0.10
2023-04-15T07:39:10.990Z,0.20
2023-04-15T07:40:14.593Z,0.10
2023-04-15T07:41:16.402Z,0.30
2023-04-15T07:42:18.552Z,0.10
2023-04-15T07:43:21.275Z,0.20
2023-04-15T07:44:23.072Z,0.20
2023-04-15T07:45:25.062Z,0.13
2023-04-15T07:46:27.562Z,0.20
2023-04-15T07:47:29.476Z,0.17
2023-04-15T07:48:31.428Z,0.20
2023-04-15T07:49:33.173Z,0.20
2023-04-15T07:50:34.968Z,0.10
2023-04-15T07:51:37.337Z,0.20
2023-04-15T07:52:39.431Z,0.20
2023-04-15T07:53:41.226Z,0.33
2023-04-15T07:54:42.980Z,0.30
2023-04-15T07:55:44.722Z,0.20
2023-04-15T07:56:46.469Z,0.22
2023-04-15T07:57:49.382Z,0.10
2023-04-15T07:58:51.559Z,0.30
2023-04-15T07:59:53.272Z,0.10
2023-04-15T08:00:55.246Z,0.20
2023-04-15T08:01:57.595Z,0.60
2023-04-15T08:02:59.781Z,0.10
2023-04-15T08:04:01.786Z,0.30
2023-04-15T08:05:04.510Z,0.20
2023-04-15T08:06:06.633Z,0.20
2023-04-15T08:07:08.485Z,0.20
2023-04-15T08:08:10.262Z,0.20
2023-04-15T08:09:11.982Z,0.20
2023-04-15T08:10:14.270Z,0.20
2023-04-15T08:11:16.186Z,0.20
2023-04-15T08:12:18.165Z,0.20
2023-04-15T08:13:20.739Z,0.40
2023-04-15T08:14:22.711Z,0.20
2023-04-15T08:15:24.697Z,0.50
2023-04-15T08:16:27.923Z,0.98
2023-04-15T08:17:29.874Z,0.22
2023-04-15T08:18:31.673Z,0.40
2023-04-15T08:19:34.677Z,0.30
2023-04-15T08:20:37.130Z,0.20
2023-04-15T08:21:38.976Z,0.17
2023-04-15T08:22:41.520Z,0.30
2023-04-15T08:23:43.858Z,0.25
2023-04-15T08:24:45.837Z,0.20
2023-04-15T08:25:47.556Z,0.20
2023-04-15T08:26:49.958Z,0.20
2023-04-15T08:27:52.479Z,0.15
2023-04-15T08:28:54.272Z,0.20
2023-04-15T08:29:55.994Z,0.20
2023-04-15T08:30:57.923Z,0.20
2023-04-15T08:32:03.081Z,0.15
2023-04-15T08:33:04.771Z,0.20
2023-04-15T08:34:06.680Z,0.10
2023-04-15T08:35:09.135Z,0.20
2023-04-15T08:36:10.957Z,0.10
2023-04-15T08:37:12.856Z,0.20
2023-04-15T08:38:14.778Z,0.20
2023-04-15T08:39:16.625Z,0.10
2023-04-15T08:40:18.377Z,0.30
2023-04-15T08:41:25.200Z,0.30
2023-04-15T08:42:44.908Z,0.40
2023-04-15T08:44:01.250Z,0.20
2023-04-15T08:45:05.280Z,0.20
2023-04-15T08:46:45.857Z,0.20
2023-04-15T08:47:51.028Z,0.20
2023-04-15T08:48:54.298Z,0.20
2023-04-15T08:49:58.563Z,0.20
2023-04-15T08:51:01.735Z,0.03
2023-04-15T08:52:04.363Z,0.10
2023-04-15T08:53:06.388Z,0.10
2023-04-15T08:54:11.048Z,0.10
2023-04-15T08:55:14.262Z,0.10
2023-04-15T08:56:16.905Z,0.10
2023-04-15T08:57:19.832Z,0.20
2023-04-15T08:58:21.735Z,0.17
2023-04-15T08:59:23.746Z,0.50
2023-04-15T09:00:27.033Z,0.10
2023-04-15T09:01:29.398Z,0.08
2023-04-15T09:02:32.185Z,0.10
2023-04-15T09:03:35.240Z,0.10
2023-04-15T09:04:37.074Z,0.10
2023-04-15T09:05:39.017Z,0.20
2023-04-15T09:06:41.541Z,0.08
2023-04-15T09:07:44.484Z,0.00
2023-04-15T09:08:47.740Z,0.20
2023-04-15T09:09:50.794Z,0.10
2023-04-15T09:10:55.659Z,0.20
2023-04-15T09:11:58.682Z,0.10
2023-04-15T09:13:04.563Z,0.10
2023-04-15T09:14:09.735Z,0.10
2023-04-15T09:15:19.225Z,0.15
2023-04-15T09:16:27.919Z,0.52
2023-04-15T09:17:33.779Z,0.10
2023-04-15T09:18:42.025Z,0.20
2023-04-15T09:19:44.235Z,0.20
2023-04-15T09:20:46.202Z,0.10
2023-04-15T09:21:49.396Z,0.10
2023-04-15T09:22:52.887Z,0.13
2023-04-15T09:23:59.816Z,0.20
2023-04-15T09:25:02.228Z,0.10
2023-04-15T09:26:05.939Z,0.10
2023-04-15T09:27:08.491Z,0.20
2023-04-15T09:28:11.734Z,0.10
2023-04-15T09:29:14.427Z,0.10
2023-04-15T09:30:16.876Z,0.10
2023-04-15T09:31:29.939Z,0.05
2023-04-15T09:32:37.886Z,0.20
2023-04-15T09:33:58.478Z,0.20
2023-04-15T09:35:13.230Z,0.10
2023-04-15T09:36:15.862Z,0.30
2023-04-15T09:37:36.413Z,0.30
2023-04-15T09:38:56.266Z,0.50
2023-04-15T09:39:58.940Z,0.40
2023-04-15T09:41:01.633Z,0.40
2023-04-15T09:42:08.359Z,0.80
2023-04-15T09:43:13.304Z,0.50
2023-04-15T09:44:28.478Z,0.80
2023-04-15T09:45:32.089Z,0.73
2023-04-15T09:46:45.384Z,0.85
2023-04-15T09:47:47.916Z,1.20
2023-04-15T09:49:09.261Z,1.40
2023-04-15T09:50:12.216Z,2.15
2023-04-15T09:51:15.516Z,1.63
2023-04-15T09:52:17.645Z,1.90
2023-04-15T09:53:22.292Z,2.77
2023-04-15T09:54:24.145Z,8.13
2023-04-15T09:55:25.879Z,3.83
2023-04-15T09:56:42.994Z,2.83
2023-04-15T09:57:47.870Z,2.08
2023-04-15T09:58:57.545Z,2.03
2023-04-15T10:00:00.350Z,2.17
2023-04-15T10:01:06.645Z,1.80
2023-04-15T10:02:08.766Z,1.73
2023-04-15T10:03:11.724Z,3.45
2023-04-15T10:04:13.771Z,2.83
2023-04-15T10:05:18.987Z,2.80
2023-04-15T10:06:21.624Z,3.03
2023-04-15T10:07:23.977Z,2.70
2023-04-15T10:08:29.125Z,3.83
2023-04-15T10:09:31.905Z,2.47
2023-04-15T10:10:34.531Z,3.92
2023-04-15T10:11:36.367Z,2.65
2023-04-15T10:12:41.551Z,2.53
2023-04-15T10:13:44.689Z,2.15
2023-04-15T10:15:05.027Z,2.10
2023-04-15T10:16:10.839Z,1.90
2023-04-15T10:17:13.612Z,2.13
2023-04-15T10:18:17.797Z,2.17
2023-04-15T10:19:23.447Z,1.70
2023-04-15T10:20:25.389Z,2.10
2023-04-15T10:21:28.508Z,2.00
2023-04-15T10:22:31.466Z,1.70
2023-04-15T10:23:33.645Z,1.73
2023-04-15T10:24:35.439Z,2.47
2023-04-15T10:25:37.722Z,2.10
2023-04-15T10:26:39.668Z,1.63
2023-04-15T10:27:42.246Z,1.67
2023-04-15T10:28:50.163Z,1.85
2023-04-15T10:29:52.100Z,1.90
2023-04-15T10:30:54.375Z,1.83
2023-04-15T10:31:57.288Z,2.10
2023-04-15T10:33:00.681Z,2.00
2023-04-15T10:34:06.362Z,2.10
2023-04-15T10:35:09.685Z,1.77
2023-04-15T10:36:11.950Z,2.10
2023-04-15T10:37:13.772Z,1.83
2023-04-15T10:38:38.699Z,1.70
2023-04-15T10:39:42.860Z,3.28
2023-04-15T10:40:45.368Z,2.50
2023-04-15T10:42:06.239Z,1.65
2023-04-15T10:43:24.655Z,1.90
2023-04-15T10:44:26.573Z,1.60
2023-04-15T10:45:38.139Z,1.90
2023-04-15T10:46:43.265Z,1.70
2023-04-15T10:47:45.262Z,2.10
2023-04-15T10:48:54.486Z,1.80
2023-04-15T10:50:01.440Z,1.58
2023-04-15T10:51:03.778Z,2.08
2023-04-15T10:52:08.160Z,2.10
2023-04-15T10:53:11.195Z,1.90
2023-04-15T10:54:33.071Z,1.70
2023-04-15T10:55:35.320Z,1.90
2023-04-15T10:56:37.084Z,1.55
2023-04-15T10:57:40.512Z,1.67
2023-04-15T10:58:43.382Z,1.70
2023-04-15T11:00:19.042Z,1.52
2023-04-15T11:01:23.288Z,1.77
2023-04-15T11:02:59.970Z,1.80
2023-04-15T11:04:02.520Z,1.73
2023-04-15T11:05:04.851Z,1.50
2023-04-15T11:06:07.564Z,1.80
2023-04-15T11:07:09.426Z,1.88
2023-04-15T11:08:12.421Z,1.95
2023-04-15T11:09:33.994Z,1.60
2023-04-15T11:10:35.863Z,1.90
2023-04-15T11:12:09.834Z,1.80
2023-04-15T11:13:11.773Z,1.60
2023-04-15T11:14:16.514Z,1.65
2023-04-15T11:15:36.420Z,1.80
2023-04-15T11:16:47.237Z,1.75
2023-04-15T11:17:49.175Z,1.80
2023-04-15T11:18:55.845Z,1.42
2023-04-15T11:19:58.317Z,1.50
2023-04-15T11:21:05.845Z,1.70
2023-04-15T11:22:11.665Z,1.80
2023-04-15T11:23:17.736Z,1.45
2023-04-15T11:24:28.772Z,1.50
2023-04-15T11:25:32.615Z,1.60
2023-04-15T11:26:34.624Z,1.58
2023-04-15T11:27:38.412Z,1.83
2023-04-15T11:28:42.330Z,1.75
2023-04-15T11:29:44.285Z,1.80
2023-04-15T11:30:46.020Z,1.65
2023-04-15T11:31:49.605Z,1.70
2023-04-15T11:32:52.718Z,1.57
2023-04-15T11:33:59.492Z,1.80
2023-04-15T11:35:01.352Z,1.40
2023-04-15T11:36:04.417Z,1.40
2023-04-15T11:37:06.654Z,1.60
2023-04-15T11:38:15.570Z,1.50
2023-04-15T11:39:17.358Z,1.65
2023-04-15T11:40:29.598Z,1.33
2023-04-15T11:41:31.558Z,1.40
2023-04-15T11:42:46.429Z,1.63
2023-04-15T11:43:51.951Z,1.83
2023-04-15T11:45:11.753Z,1.70
2023-04-15T11:46:13.546Z,2.05
2023-04-15T11:47:24.793Z,1.80
2023-04-15T11:48:34.927Z,1.30
2023-04-15T11:49:40.167Z,1.35
2023-04-15T11:50:41.984Z,1.48
2023-04-15T11:51:43.798Z,1.88
2023-04-15T11:52:59.623Z,1.52
2023-04-15T11:54:01.652Z,1.77
2023-04-15T11:55:04.427Z,1.60
2023-04-15T11:56:08.065Z,1.50
2023-04-15T11:57:09.811Z,1.35
2023-04-15T11:58:18.543Z,1.40
2023-04-15T11:59:20.576Z,1.70
2023-04-15T12:00:22.383Z,1.60
2023-04-15T12:01:42.333Z,1.48
2023-04-15T12:02:44.571Z,1.35
2023-04-15T12:03:47.425Z,1.50
2023-04-15T12:04:49.422Z,1.40
2023-04-15T12:06:21.734Z,1.37
2023-04-15T12:07:23.466Z,1.33
2023-04-15T12:08:25.436Z,1.60
2023-04-15T12:09:27.927Z,1.30
2023-04-15T12:10:32.559Z,1.35
2023-04-15T12:11:48.974Z,2.00
2023-04-15T12:12:52.601Z,1.50
2023-04-15T12:13:56.727Z,1.60
2023-04-15T12:14:59.470Z,2.10
2023-04-15T12:16:03.342Z,1.55
2023-04-15T12:17:06.674Z,1.40
2023-04-15T12:18:18.016Z,1.50
2023-04-15T12:19:25.316Z,1.40
2023-04-15T12:20:27.204Z,1.58
2023-04-15T12:21:35.083Z,1.50
2023-04-15T12:22:38.469Z,1.55
2023-04-15T12:23:56.940Z,1.23
2023-04-15T12:24:58.885Z,1.40
2023-04-15T12:26:05.789Z,1.10
2023-04-15T12:27:09.683Z,1.08
2023-04-15T12:28:12.074Z,1.20
2023-04-15T12:29:16.491Z,1.17
2023-04-15T12:30:18.312Z,1.20
2023-04-15T12:31:20.040Z,1.13
2023-04-15T12:32:23.679Z,1.20
2023-04-15T12:33:33.671Z,1.60
2023-04-15T12:34:42.428Z,1.33
2023-04-15T12:35:44.190Z,2.20
2023-04-15T12:36:46.162Z,3.13
2023-04-15T12:37:47.926Z,9.65
2023-04-15T12:38:49.885Z,14.73
2023-04-15T12:39:52.302Z,7.80
2023-04-15T12:40:54.519Z,8.65
2023-04-15T12:41:56.294Z,3.30
2023-04-15T12:42:58.185Z,2.15
2023-04-15T12:44:00.324Z,1.45
2023-04-15T12:45:02.460Z,1.58
2023-04-15T12:46:04.949Z,1.48
2023-04-15T12:47:08.238Z,1.30
2023-04-15T12:48:10.046Z,1.48
2023-04-15T12:49:12.044Z,1.47
2023-04-15T12:50:13.792Z,1.30
2023-04-15T12:51:15.591Z,1.40
2023-04-15T12:52:17.326Z,1.42
2023-04-15T12:53:19.100Z,1.30
2023-04-15T12:54:21.561Z,1.13
2023-04-15T12:55:23.600Z,1.17
2023-04-15T12:56:25.538Z,1.40
2023-04-15T12:57:27.641Z,1.33
2023-04-15T12:58:29.458Z,1.50
2023-04-15T12:59:31.204Z,1.40
2023-04-15T13:00:35.135Z,1.50
2023-04-15T13:01:36.950Z,1.40
2023-04-15T13:02:38.884Z,1.50
2023-04-15T13:03:41.240Z,1.50
2023-04-15T13:04:43.173Z,1.27
2023-04-15T13:05:45.470Z,1.60
2023-04-15T13:06:47.417Z,1.50
2023-04-15T13:07:49.176Z,1.40
2023-04-15T13:08:58.421Z,1.27
2023-04-15T13:10:01.079Z,1.40
2023-04-15T13:11:03.641Z,1.23
2023-04-15T13:12:05.618Z,1.33
2023-04-15T13:13:07.332Z,1.10
2023-04-15T13:14:11.693Z,1.25
2023-04-15T13:15:13.560Z,1.50
2023-04-15T13:16:15.699Z,1.35
2023-04-15T13:17:20.367Z,1.30
2023-04-15T13:18:23.585Z,1.30
2023-04-15T13:19:25.753Z,1.30
2023-04-15T13:20:28.051Z,1.47
2023-04-15T13:21:31.276Z,1.02
2023-04-15T13:22:33.064Z,1.20
2023-04-15T13:23:34.776Z,1.58
2023-04-15T13:24:37.051Z,1.25
2023-04-15T13:25:38.838Z,1.20
2023-04-15T13:26:41.008Z,1.33
2023-04-15T13:27:42.804Z,1.10
2023-04-15T13:28:45.105Z,1.33
2023-04-15T13:29:46.857Z,1.30
2023-04-15T13:30:49.367Z,1.20
2023-04-15T13:31:51.406Z,1.15
2023-04-15T13:32:54.039Z,1.20
2023-04-15T13:33:57.304Z,1.17
2023-04-15T13:34:59.410Z,1.20
2023-04-15T13:36:01.337Z,1.00
2023-04-15T13:37:07.892Z,1.15
2023-04-15T13:38:09.707Z,1.00
2023-04-15T13:39:11.597Z,1.40
2023-04-15T13:40:13.369Z,1.10
2023-04-15T13:41:15.422Z,1.20
2023-04-15T13:42:17.154Z,0.90
2023-04-15T13:43:18.851Z,1.00
2023-04-15T13:44:22.192Z,0.98
2023-04-15T13:45:24.144Z,1.10
2023-04-15T13:46:26.243Z,0.90
2023-04-15T13:47:28.127Z,0.98
2023-04-15T13:48:29.952Z,1.10
2023-04-15T13:49:31.702Z,1.15
2023-04-15T13:50:33.494Z,1.02
2023-04-15T13:51:36.910Z,1.10
2023-04-15T13:52:38.712Z,1.00
2023-04-15T13:53:40.592Z,1.10
2023-04-15T13:54:42.343Z,1.10
2023-04-15T13:55:44.243Z,1.00
2023-04-15T13:56:46.058Z,1.10
2023-04-15T13:57:48.078Z,1.40
2023-04-15T13:58:49.969Z,1.23
2023-04-15T13:59:51.720Z,1.20
2023-04-15T14:00:53.510Z,1.17
2023-04-15T14:01:57.647Z,1.27
2023-04-15T14:02:59.640Z,1.10
2023-04-15T14:04:01.587Z,1.08
2023-04-15T14:05:03.480Z,1.10